createdAt,value
2022-10-03T00:02:07.712Z,7.53
2022-10-03T00:12:49.272Z,9.75
2022-10-03T00:18:20.654Z,6.82
2022-10-03T00:23:36.975Z,6.80
2022-10-03T00:28:44.140Z,6.93
2022-10-03T00:34:04.418Z,8.32
2022-10-03T00:39:31.462Z,9.13
2022-10-03T00:45:02.231Z,7.05
2022-10-03T00:50:31.879Z,7.25
2022-10-03T00:56:08.454Z,7.25
2022-10-03T01:01:46.443Z,7.78
2022-10-03T01:07:08.690Z,7.22
2022-10-03T01:12:15.669Z,6.68
2022-10-03T01:17:47.302Z,7.35
2022-10-03T01:23:02.318Z,9.38
2022-10-03T01:28:48.134Z,8.48
2022-10-03T01:34:13.030Z,6.40
2022-10-03T01:39:42.916Z,8.45
2022-10-03T01:44:44.144Z,9.27
2022-10-03T01:50:05.376Z,12.48
2022-10-03T01:55:32.698Z,9.00
2022-10-03T02:01:01.361Z,9.02
2022-10-03T02:06:08.935Z,10.70
2022-10-03T02:11:11.488Z,9.27
2022-10-03T02:16:39.306Z,9.73
2022-10-03T02:21:53.921Z,7.40
2022-10-03T02:32:29.759Z,10.23
2022-10-03T02:37:46.497Z,8.68
2022-10-03T02:43:18.746Z,8.55
2022-10-03T02:48:48.186Z,8.98
2022-10-03T02:54:23.965Z,9.43
2022-10-03T02:59:49.559Z,11.10
2022-10-03T03:04:59.625Z,13.82
2022-10-03T03:10:19.194Z,10.70
2022-10-03T03:15:20.418Z,12.88
2022-10-03T03:20:54.268Z,12.15
2022-10-03T03:26:30.619Z,12.45
2022-10-03T03:31:49.970Z,9.32
2022-10-03T03:37:00.747Z,12.20
2022-10-03T03:42:01.934Z,11.15
2022-10-03T03:47:21.320Z,9.50
2022-10-03T03:52:35.551Z,8.25
2022-10-03T03:57:52.061Z,9.43
2022-10-03T04:03:07.455Z,10.57
2022-10-03T04:08:12.074Z,9.27
2022-10-03T04:13:22.529Z,9.88
2022-10-03T04:18:58.176Z,7.97
2022-10-03T04:24:21.805Z,11.00
2022-10-03T04:29:43.427Z,11.38
2022-10-03T04:35:09.334Z,9.07
2022-10-03T04:40:45.288Z,13.57
2022-10-03T04:46:40.378Z,14.27
2022-10-03T04:52:03.132Z,8.60
2022-10-03T04:57:35.111Z,10.80
2022-10-03T05:02:52.913Z,11.05
2022-10-03T05:08:23.370Z,11.32
2022-10-03T05:14:03.490Z,11.38
2022-10-03T05:19:36.504Z,11.23
2022-10-03T05:24:58.074Z,7.68
2022-10-03T05:30:08.742Z,8.60
2022-10-03T05:35:19.738Z,8.70
2022-10-03T05:40:24.927Z,10.02
2022-10-03T05:46:02.819Z,10.57
2022-10-03T05:51:39.571Z,9.55
2022-10-03T05:56:53.541Z,8.10
2022-10-03T06:02:00.890Z,10.03
2022-10-03T06:07:23.477Z,12.73
2022-10-03T06:12:54.206Z,13.13
2022-10-03T06:18:08.420Z,10.43
2022-10-03T06:23:37.178Z,9.98
2022-10-03T06:28:51.163Z,11.88
2022-10-03T06:34:28.367Z,11.73
2022-10-03T06:39:51.681Z,12.57
2022-10-03T06:45:13.898Z,12.48
2022-10-03T06:50:36.154Z,11.07
2022-10-03T06:55:52.537Z,9.10
2022-10-03T07:01:04.133Z,8.15
2022-10-03T07:06:20.649Z,9.13
2022-10-03T07:11:57.780Z,9.65
2022-10-03T07:17:23.086Z,8.98
2022-10-03T07:22:47.952Z,8.40
2022-10-03T07:28:15.058Z,9.90
2022-10-03T07:33:29.588Z,10.43
2022-10-03T07:44:09.870Z,9.02
2022-10-03T07:49:34.986Z,10.40
2022-10-03T07:54:54.125Z,12.18
2022-10-03T08:00:17.538Z,12.07
2022-10-03T08:05:56.349Z,13.75
2022-10-03T08:11:22.627Z,9.27
2022-10-03T08:16:31.551Z,10.85
2022-10-03T08:21:51.002Z,11.50
2022-10-03T08:26:55.225Z,10.57
2022-10-03T08:32:15.234Z,13.77
2022-10-03T08:37:52.221Z,11.65
2022-10-03T08:43:32.808Z,12.55
2022-10-03T08:48:56.640Z,10.40
2022-10-03T08:54:08.623Z,11.93
2022-10-03T08:59:31.055Z,13.90
2022-10-03T09:05:26.613Z,10.32
2022-10-03T09:10:55.669Z,11.88
2022-10-03T09:16:29.957Z,6.32
2022-10-03T09:22:17.141Z,8.48
2022-10-03T09:27:37.385Z,7.38
2022-10-03T09:32:56.932Z,4.88
2022-10-03T09:38:22.945Z,6.20
2022-10-03T09:43:42.960Z,5.40
2022-10-03T09:49:09.198Z,5.45
2022-10-03T09:54:23.349Z,5.40
2022-10-03T09:59:27.441Z,4.43
2022-10-03T10:04:56.552Z,4.30
2022-10-03T10:10:16.275Z,6.45
2022-10-03T10:15:36.410Z,6.38
2022-10-03T10:21:08.850Z,3.40
2022-10-03T10:26:48.806Z,4.70
2022-10-03T10:32:17.870Z,3.47
2022-10-03T10:37:58.230Z,4.57
2022-10-03T10:43:26.774Z,4.80
2022-10-03T10:48:52.816Z,3.60
2022-10-03T10:54:06.336Z,4.30
2022-10-03T10:59:46.697Z,4.53
2022-10-03T11:05:29.948Z,2.83
2022-10-03T11:10:39.531Z,4.07
2022-10-03T11:15:54.210Z,4.47
2022-10-03T11:21:35.105Z,3.30
2022-10-03T11:27:10.384Z,4.32
2022-10-03T11:32:42.807Z,2.97
2022-10-03T11:37:57.396Z,3.38
2022-10-03T11:43:27.548Z,2.30
2022-10-03T11:48:39.577Z,3.33
2022-10-03T11:53:43.902Z,1.80
2022-10-03T11:59:26.785Z,2.85
2022-10-03T12:04:42.114Z,3.03
2022-10-03T12:10:14.893Z,3.60
2022-10-03T12:15:44.239Z,3.10
2022-10-03T12:21:11.450Z,4.95
2022-10-03T12:26:19.847Z,4.07
2022-10-03T12:31:39.987Z,2.78
2022-10-03T12:36:53.203Z,2.90
2022-10-03T12:42:23.024Z,2.08
2022-10-03T12:47:54.493Z,5.82
2022-10-03T12:53:15.025Z,3.13
2022-10-03T12:58:34.289Z,5.27
2022-10-03T13:03:52.127Z,4.95
2022-10-03T13:09:11.752Z,4.03
2022-10-03T13:14:41.314Z,5.78
2022-10-03T13:19:58.207Z,5.75
2022-10-03T13:25:21.731Z,4.28
2022-10-03T13:30:32.499Z,3.33
2022-10-03T13:36:01.460Z,3.58
2022-10-03T13:41:15.431Z,3.35
2022-10-03T13:46:25.045Z,4.22
2022-10-03T13:51:39.836Z,4.97
2022-10-03T13:56:45.292Z,4.50
2022-10-03T14:02:00.246Z,3.53
2022-10-03T14:07:18.092Z,3.47
2022-10-03T14:12:51.195Z,5.38
2022-10-03T14:18:12.008Z,4.68
2022-10-03T14:23:25.010Z,2.50
2022-10-03T14:29:01.568Z,4.80
2022-10-03T14:34:35.325Z,6.57
2022-10-03T14:39:56.368Z,4.47
2022-10-03T14:45:03.653Z,2.45
2022-10-03T14:50:06.473Z,3.80
2022-10-03T14:55:18.775Z,3.65
2022-10-03T15:00:45.739Z,4.60
2022-10-03T15:06:10.416Z,7.07
2022-10-03T15:11:16.473Z,4.03
2022-10-03T15:16:21.648Z,3.80
2022-10-03T15:21:26.081Z,4.13
2022-10-03T15:26:32.838Z,4.75
2022-10-03T15:31:39.323Z,3.47
2022-10-03T15:36:45.389Z,4.55
2022-10-03T15:41:55.807Z,5.28
2022-10-03T15:47:04.941Z,6.53
2022-10-03T15:52:20.417Z,3.88
2022-10-03T15:57:27.780Z,4.88
2022-10-03T16:02:39.319Z,6.25
2022-10-03T16:07:50.782Z,5.57
2022-10-03T16:13:00.556Z,3.85
2022-10-03T16:18:09.232Z,4.28
2022-10-03T16:23:21.358Z,6.35
2022-10-03T16:28:30.376Z,4.28
2022-10-03T16:33:36.784Z,4.75
2022-10-03T16:38:46.335Z,6.13
2022-10-03T16:44:24.892Z,4.15
2022-10-03T16:49:44.939Z,6.72
2022-10-03T16:54:47.236Z,5.55
2022-10-03T16:59:51.975Z,4.72
2022-10-03T17:05:01.589Z,5.20
2022-10-03T17:10:03.904Z,10.15
2022-10-03T17:15:08.781Z,6.32
2022-10-03T17:20:22.050Z,8.70
2022-10-03T17:25:51.010Z,7.72
2022-10-03T17:30:59.312Z,6.72
2022-10-03T17:36:22.519Z,10.73
2022-10-03T17:41:39.456Z,7.03
2022-10-03T17:46:50.849Z,10.60
2022-10-03T17:51:55.308Z,8.75
2022-10-03T17:57:05.908Z,9.27
2022-10-03T18:02:21.127Z,11.93
2022-10-03T18:07:26.886Z,9.25
2022-10-03T18:12:30.748Z,10.55
2022-10-03T18:17:51.153Z,10.30
2022-10-03T18:23:10.470Z,11.27
2022-10-03T18:28:32.196Z,9.45
2022-10-03T18:33:50.117Z,9.88
2022-10-03T18:38:58.827Z,10.02
2022-10-03T18:44:01.340Z,10.75
2022-10-03T18:49:34.264Z,9.77
2022-10-03T18:54:59.217Z,11.30
2022-10-03T19:00:15.842Z,11.32
2022-10-03T19:05:50.711Z,10.68
2022-10-03T19:11:01.588Z,11.30
2022-10-03T19:16:46.414Z,9.13
2022-10-03T19:26:55.853Z,9.10
2022-10-03T19:32:22.834Z,9.40
2022-10-03T19:37:41.928Z,10.57
2022-10-03T19:42:54.021Z,11.48
2022-10-03T19:48:08.730Z,8.88
2022-10-03T19:53:14.759Z,9.13
2022-10-03T19:58:23.958Z,9.00
2022-10-03T20:03:31.867Z,8.55
2022-10-03T20:08:44.512Z,10.90
2022-10-03T20:13:48.197Z,11.68
2022-10-03T20:18:53.726Z,10.48
2022-10-03T20:23:57.840Z,15.48
2022-10-03T20:29:10.437Z,12.55
2022-10-03T20:34:20.989Z,9.20
2022-10-03T20:39:31.361Z,11.07
2022-10-03T20:45:01.444Z,11.68
2022-10-03T20:50:12.735Z,11.55
2022-10-03T20:55:31.251Z,11.13
2022-10-03T21:00:41.434Z,11.60
2022-10-03T21:05:57.401Z,11.32
2022-10-03T21:11:02.657Z,11.90
2022-10-03T21:16:17.338Z,12.43
2022-10-03T21:21:43.110Z,10.43
2022-10-03T21:27:10.814Z,12.90
2022-10-03T21:32:47.369Z,11.32
2022-10-03T21:38:29.078Z,14.02
2022-10-03T21:43:50.242Z,11.23
2022-10-03T21:49:06.697Z,13.93
2022-10-03T21:54:53.338Z,12.60
2022-10-03T22:00:13.593Z,12.38
2022-10-03T22:05:37.857Z,13.75
2022-10-03T22:10:46.747Z,13.90
2022-10-03T22:16:04.046Z,12.18
2022-10-03T22:21:18.180Z,10.55
2022-10-03T22:26:24.203Z,11.90
2022-10-03T22:31:59.479Z,10.68
2022-10-03T22:37:02.004Z,11.93
2022-10-03T22:42:05.688Z,11.75
2022-10-03T22:47:16.062Z,12.77
2022-10-03T22:52:25.932Z,11.13
2022-10-03T22:57:28.260Z,20.48
2022-10-03T23:02:48.186Z,22.73
2022-10-03T23:08:02.033Z,27.88
2022-10-03T23:13:10.982Z,26.87
2022-10-03T23:18:15.048Z,20.17
2022-10-03T23:23:24.307Z,20.95
2022-10-03T23:28:37.567Z,16.65
2022-10-03T23:33:38.798Z,20.67
2022-10-03T23:38:40.147Z,17.55
2022-10-03T23:43:44.156Z,19.20
2022-10-03T23:48:58.106Z,14.55
2022-10-03T23:54:03.807Z,15.73
2022-10-03T23:59:05.065Z,17.30
